SCEL/SCL METAR and TAF weather

Enter ICAO airport designator
Station Type Date Time Source
SCEL METAR 2019/06/17 15:00 UTC NOAA

SCEL 171500Z VRB02KT 5000 HZ FEW180 BKN200 05/03 Q1020 NOSIG


Station Type Date Time Source
SCEL Decoded METAR 2019/06/17 15:00 UTC NOAA

Pudahuel, Chile (SCEL) 33-23S 070-47W 476M
Jun 17, 2019 - 11:00 AM EDT / 2019.06.17 1500 UTC
Wind: Variable at 2 MPH (2 KT):0
Visibility: 3 mile(s):0
Sky conditions: mostly cloudy
Weather: haze
Temperature: 41 F (5 C)
Dew Point: 37 F (3 C)
Relative Humidity: 86%
Pressure (altimeter): 30.12 in. Hg (1020 hPa)
ob: SCEL 171500Z VRB02KT 5000 HZ FEW180 BKN200 05/03 Q1020 NOSIG
cycle: 15

Station Type Date Time Source
SCEL TAF 2019/06/17 12:03 UTC NOAA

TAF SCEL 171028Z 1712/1812 16004KT 8000 SCT180 BKN200 TX12/1718Z TN00/1811Z
TEMPO 1712/1715 VRB02KT 4000 BR
BECMG 1716/1718 17006KT 9999 SCT030 BKN160
TEMPO 1720/1802 32007KT 8000 TS -SHRA SCT025 BKN060
BECMG 1810/1812 CAVOK

Example: see airport list